sensor_id;sensor_type;location;lat;lon;timestamp;P1;durP1;ratioP1;P2;durP2;ratioP2
71148;SDS011;59072;42.144;25.200;2022-08-19T00:01:48;15.05;;;9.55;;
71148;SDS011;59072;42.144;25.200;2022-08-19T00:04:16;11.27;;;9.82;;
71148;SDS011;59072;42.144;25.200;2022-08-19T00:09:10;11.38;;;9.63;;
71148;SDS011;59072;42.144;25.200;2022-08-19T00:11:37;13.20;;;9.77;;
71148;SDS011;59072;42.144;25.200;2022-08-19T00:14:07;13.23;;;9.90;;
71148;SDS011;59072;42.144;25.200;2022-08-19T00:16:35;14.38;;;9.48;;
71148;SDS011;59072;42.144;25.200;2022-08-19T00:19:02;13.25;;;9.55;;
71148;SDS011;59072;42.144;25.200;2022-08-19T00:21:28;11.98;;;8.93;;
71148;SDS011;59072;42.144;25.200;2022-08-19T00:23:54;12.35;;;8.98;;
71148;SDS011;59072;42.144;25.200;2022-08-19T00:26:23;13.10;;;9.73;;
71148;SDS011;59072;42.144;25.200;2022-08-19T00:28:50;16.13;;;10.37;;
71148;SDS011;59072;42.144;25.200;2022-08-19T00:31:15;14.75;;;9.75;;
71148;SDS011;59072;42.144;25.200;2022-08-19T00:33:42;11.70;;;9.75;;
71148;SDS011;59072;42.144;25.200;2022-08-19T00:36:08;10.68;;;9.25;;
71148;SDS011;59072;42.144;25.200;2022-08-19T00:38:35;12.50;;;9.38;;
71148;SDS011;59072;42.144;25.200;2022-08-19T00:41:02;14.38;;;10.43;;
71148;SDS011;59072;42.144;25.200;2022-08-19T00:43:28;14.45;;;9.65;;
71148;SDS011;59072;42.144;25.200;2022-08-19T00:45:54;15.00;;;9.98;;
71148;SDS011;59072;42.144;25.200;2022-08-19T00:48:20;12.73;;;9.55;;
71148;SDS011;59072;42.144;25.200;2022-08-19T00:50:46;14.77;;;9.68;;
71148;SDS011;59072;42.144;25.200;2022-08-19T00:53:14;11.93;;;9.43;;
71148;SDS011;59072;42.144;25.200;2022-08-19T00:55:47;13.60;;;9.90;;
71148;SDS011;59072;42.144;25.200;2022-08-19T00:58:16;13.00;;;9.70;;
71148;SDS011;59072;42.144;25.200;2022-08-19T01:00:46;11.60;;;9.27;;
71148;SDS011;59072;42.144;25.200;2022-08-19T01:03:15;13.43;;;9.82;;
71148;SDS011;59072;42.144;25.200;2022-08-19T01:05:43;13.57;;;9.57;;
71148;SDS011;59072;42.144;25.200;2022-08-19T01:08:10;17.70;;;11.43;;
71148;SDS011;59072;42.144;25.200;2022-08-19T01:10:37;12.60;;;10.60;;
71148;SDS011;59072;42.144;25.200;2022-08-19T01:13:07;17.45;;;10.88;;
71148;SDS011;59072;42.144;25.200;2022-08-19T01:15:34;17.75;;;10.98;;
71148;SDS011;59072;42.144;25.200;2022-08-19T01:18:04;14.30;;;10.23;;
71148;SDS011;59072;42.144;25.200;2022-08-19T01:20:33;13.20;;;10.27;;
71148;SDS011;59072;42.144;25.200;2022-08-19T01:22:59;14.88;;;9.82;;
71148;SDS011;59072;42.144;25.200;2022-08-19T01:25:26;11.85;;;9.68;;
71148;SDS011;59072;42.144;25.200;2022-08-19T01:27:57;14.68;;;9.40;;
71148;SDS011;59072;42.144;25.200;2022-08-19T01:30:31;12.85;;;9.45;;
71148;SDS011;59072;42.144;25.200;2022-08-19T01:32:58;14.95;;;9.55;;
71148;SDS011;59072;42.144;25.200;2022-08-19T01:35:28;13.23;;;9.93;;
71148;SDS011;59072;42.144;25.200;2022-08-19T01:37:59;11.13;;;9.50;;
71148;SDS011;59072;42.144;25.200;2022-08-19T01:40:30;12.23;;;9.82;;
71148;SDS011;59072;42.144;25.200;2022-08-19T01:42:57;14.27;;;10.50;;
71148;SDS011;59072;42.144;25.200;2022-08-19T01:45:24;14.00;;;10.30;;
71148;SDS011;59072;42.144;25.200;2022-08-19T01:47:52;11.93;;;9.43;;
71148;SDS011;59072;42.144;25.200;2022-08-19T01:50:18;12.00;;;9.95;;
71148;SDS011;59072;42.144;25.200;2022-08-19T01:52:44;13.80;;;10.10;;
71148;SDS011;59072;42.144;25.200;2022-08-19T01:55:16;13.88;;;10.70;;
71148;SDS011;59072;42.144;25.200;2022-08-19T01:57:44;14.43;;;10.52;;
71148;SDS011;59072;42.144;25.200;2022-08-19T02:00:15;12.45;;;9.68;;
71148;SDS011;59072;42.144;25.200;2022-08-19T02:02:42;14.57;;;11.02;;
71148;SDS011;59072;42.144;25.200;2022-08-19T02:05:08;14.00;;;10.30;;
71148;SDS011;59072;42.144;25.200;2022-08-19T02:07:35;13.23;;;10.67;;
71148;SDS011;59072;42.144;25.200;2022-08-19T02:10:05;14.38;;;11.82;;
71148;SDS011;59072;42.144;25.200;2022-08-19T02:12:35;17.85;;;11.90;;
71148;SDS011;59072;42.144;25.200;2022-08-19T02:15:02;17.63;;;12.07;;
71148;SDS011;59072;42.144;25.200;2022-08-19T02:17:28;17.42;;;11.65;;
71148;SDS011;59072;42.144;25.200;2022-08-19T02:19:55;15.75;;;11.40;;
71148;SDS011;59072;42.144;25.200;2022-08-19T02:22:21;16.15;;;10.80;;
71148;SDS011;59072;42.144;25.200;2022-08-19T02:24:48;14.15;;;10.80;;
71148;SDS011;59072;42.144;25.200;2022-08-19T02:27:14;16.35;;;10.27;;
71148;SDS011;59072;42.144;25.200;2022-08-19T02:29:40;16.65;;;11.00;;
71148;SDS011;59072;42.144;25.200;2022-08-19T02:32:06;15.02;;;11.52;;
71148;SDS011;59072;42.144;25.200;2022-08-19T02:34:32;13.55;;;10.90;;
71148;SDS011;59072;42.144;25.200;2022-08-19T02:36:59;17.10;;;10.68;;
71148;SDS011;59072;42.144;25.200;2022-08-19T02:39:25;16.65;;;10.52;;
71148;SDS011;59072;42.144;25.200;2022-08-19T02:41:51;16.15;;;10.43;;
71148;SDS011;59072;42.144;25.200;2022-08-19T02:44:17;13.50;;;10.13;;
71148;SDS011;59072;42.144;25.200;2022-08-19T02:46:44;17.75;;;10.23;;
71148;SDS011;59072;42.144;25.200;2022-08-19T02:49:11;17.25;;;11.52;;
71148;SDS011;59072;42.144;25.200;2022-08-19T02:51:40;14.10;;;10.85;;
71148;SDS011;59072;42.144;25.200;2022-08-19T02:56:34;16.40;;;11.73;;
71148;SDS011;59072;42.144;25.200;2022-08-19T02:59:01;16.08;;;10.73;;
71148;SDS011;59072;42.144;25.200;2022-08-19T03:01:29;14.48;;;10.35;;
71148;SDS011;59072;42.144;25.200;2022-08-19T03:03:56;17.30;;;10.73;;
71148;SDS011;59072;42.144;25.200;2022-08-19T03:06:24;14.55;;;11.18;;
71148;SDS011;59072;42.144;25.200;2022-08-19T03:08:51;15.52;;;9.70;;
71148;SDS011;59072;42.144;25.200;2022-08-19T03:13:47;15.63;;;10.43;;
71148;SDS011;59072;42.144;25.200;2022-08-19T03:16:17;15.93;;;11.85;;
71148;SDS011;59072;42.144;25.200;2022-08-19T03:18:43;22.23;;;10.85;;
71148;SDS011;59072;42.144;25.200;2022-08-19T03:21:09;17.35;;;11.10;;
71148;SDS011;59072;42.144;25.200;2022-08-19T03:23:39;15.32;;;10.77;;
71148;SDS011;59072;42.144;25.200;2022-08-19T03:26:05;15.60;;;11.07;;
71148;SDS011;59072;42.144;25.200;2022-08-19T03:28:31;17.17;;;11.27;;
71148;SDS011;59072;42.144;25.200;2022-08-19T03:31:02;17.80;;;11.75;;
71148;SDS011;59072;42.144;25.200;2022-08-19T03:33:30;17.25;;;11.05;;
71148;SDS011;59072;42.144;25.200;2022-08-19T03:36:07;17.05;;;10.95;;
71148;SDS011;59072;42.144;25.200;2022-08-19T03:38:41;16.33;;;12.43;;
71148;SDS011;59072;42.144;25.200;2022-08-19T03:41:10;15.57;;;12.13;;
71148;SDS011;59072;42.144;25.200;2022-08-19T03:43:38;16.90;;;12.65;;
71148;SDS011;59072;42.144;25.200;2022-08-19T03:46:09;19.92;;;12.38;;
71148;SDS011;59072;42.144;25.200;2022-08-19T03:48:36;18.25;;;12.68;;
71148;SDS011;59072;42.144;25.200;2022-08-19T03:51:03;17.67;;;11.75;;
71148;SDS011;59072;42.144;25.200;2022-08-19T03:53:29;18.40;;;12.68;;
71148;SDS011;59072;42.144;25.200;2022-08-19T03:58:25;14.05;;;11.73;;
71148;SDS011;59072;42.144;25.200;2022-08-19T04:00:54;16.73;;;11.35;;
71148;SDS011;59072;42.144;25.200;2022-08-19T04:03:20;17.38;;;11.43;;
71148;SDS011;59072;42.144;25.200;2022-08-19T04:05:46;17.73;;;11.50;;
71148;SDS011;59072;42.144;25.200;2022-08-19T04:08:12;17.27;;;12.25;;
71148;SDS011;59072;42.144;25.200;2022-08-19T04:10:38;16.35;;;11.60;;
71148;SDS011;59072;42.144;25.200;2022-08-19T04:13:05;17.63;;;12.67;;
71148;SDS011;59072;42.144;25.200;2022-08-19T04:15:32;16.42;;;10.80;;
71148;SDS011;59072;42.144;25.200;2022-08-19T04:18:04;13.63;;;10.30;;
71148;SDS011;59072;42.144;25.200;2022-08-19T04:20:31;14.73;;;10.85;;
71148;SDS011;59072;42.144;25.200;2022-08-19T04:22:56;16.55;;;10.80;;
71148;SDS011;59072;42.144;25.200;2022-08-19T04:25:22;13.32;;;10.45;;
71148;SDS011;59072;42.144;25.200;2022-08-19T04:27:47;14.20;;;9.98;;
71148;SDS011;59072;42.144;25.200;2022-08-19T04:30:14;15.23;;;11.30;;
71148;SDS011;59072;42.144;25.200;2022-08-19T04:32:40;15.23;;;10.18;;
71148;SDS011;59072;42.144;25.200;2022-08-19T04:35:08;14.90;;;10.70;;
71148;SDS011;59072;42.144;25.200;2022-08-19T04:37:34;13.38;;;10.30;;
71148;SDS011;59072;42.144;25.200;2022-08-19T04:39:59;13.80;;;10.57;;
71148;SDS011;59072;42.144;25.200;2022-08-19T04:42:43;15.23;;;10.40;;
71148;SDS011;59072;42.144;25.200;2022-08-19T04:45:11;13.88;;;11.05;;
71148;SDS011;59072;42.144;25.200;2022-08-19T04:47:39;15.60;;;11.45;;
71148;SDS011;59072;42.144;25.200;2022-08-19T04:50:06;13.75;;;10.82;;
71148;SDS011;59072;42.144;25.200;2022-08-19T04:52:33;13.23;;;9.82;;
71148;SDS011;59072;42.144;25.200;2022-08-19T04:54:59;15.52;;;9.95;;
71148;SDS011;59072;42.144;25.200;2022-08-19T04:57:25;13.65;;;10.15;;
71148;SDS011;59072;42.144;25.200;2022-08-19T04:59:54;17.33;;;10.10;;
71148;SDS011;59072;42.144;25.200;2022-08-19T05:02:20;13.70;;;11.07;;
71148;SDS011;59072;42.144;25.200;2022-08-19T05:04:50;19.38;;;10.30;;
71148;SDS011;59072;42.144;25.200;2022-08-19T05:07:21;35.13;;;24.40;;
71148;SDS011;59072;42.144;25.200;2022-08-19T05:09:46;33.85;;;23.52;;
71148;SDS011;59072;42.144;25.200;2022-08-19T05:12:11;32.05;;;18.80;;
71148;SDS011;59072;42.144;25.200;2022-08-19T05:14:37;33.67;;;26.17;;
71148;SDS011;59072;42.144;25.200;2022-08-19T05:17:02;46.30;;;27.42;;
71148;SDS011;59072;42.144;25.200;2022-08-19T05:19:28;87.55;;;43.70;;
71148;SDS011;59072;42.144;25.200;2022-08-19T05:22:12;114.60;;;64.10;;
71148;SDS011;59072;42.144;25.200;2022-08-19T05:24:55;69.75;;;43.70;;
71148;SDS011;59072;42.144;25.200;2022-08-19T05:27:21;54.75;;;33.47;;
71148;SDS011;59072;42.144;25.200;2022-08-19T05:29:46;23.70;;;17.15;;
71148;SDS011;59072;42.144;25.200;2022-08-19T05:32:12;30.85;;;19.67;;
71148;SDS011;59072;42.144;25.200;2022-08-19T05:34:38;20.30;;;12.27;;
71148;SDS011;59072;42.144;25.200;2022-08-19T05:37:03;42.42;;;29.15;;
71148;SDS011;59072;42.144;25.200;2022-08-19T05:39:32;18.63;;;12.45;;
71148;SDS011;59072;42.144;25.200;2022-08-19T05:42:02;17.08;;;12.07;;
71148;SDS011;59072;42.144;25.200;2022-08-19T05:44:33;21.25;;;15.45;;
71148;SDS011;59072;42.144;25.200;2022-08-19T05:47:02;31.98;;;19.17;;
71148;SDS011;59072;42.144;25.200;2022-08-19T05:49:30;22.10;;;16.27;;
71148;SDS011;59072;42.144;25.200;2022-08-19T05:51:56;15.07;;;10.93;;
71148;SDS011;59072;42.144;25.200;2022-08-19T05:54:23;13.85;;;10.38;;
71148;SDS011;59072;42.144;25.200;2022-08-19T05:56:49;13.50;;;11.52;;
71148;SDS011;59072;42.144;25.200;2022-08-19T05:59:17;18.02;;;13.60;;
71148;SDS011;59072;42.144;25.200;2022-08-19T06:01:45;15.68;;;11.43;;
71148;SDS011;59072;42.144;25.200;2022-08-19T06:04:11;15.65;;;10.52;;
71148;SDS011;59072;42.144;25.200;2022-08-19T06:06:40;15.45;;;11.60;;
71148;SDS011;59072;42.144;25.200;2022-08-19T06:09:06;19.98;;;15.00;;
71148;SDS011;59072;42.144;25.200;2022-08-19T06:14:02;15.30;;;10.43;;
71148;SDS011;59072;42.144;25.200;2022-08-19T06:16:30;21.38;;;14.80;;
71148;SDS011;59072;42.144;25.200;2022-08-19T06:18:59;14.82;;;12.25;;
71148;SDS011;59072;42.144;25.200;2022-08-19T06:21:27;18.15;;;11.68;;
71148;SDS011;59072;42.144;25.200;2022-08-19T06:23:54;17.38;;;12.98;;
71148;SDS011;59072;42.144;25.200;2022-08-19T06:26:21;16.50;;;13.30;;
71148;SDS011;59072;42.144;25.200;2022-08-19T06:28:48;15.25;;;11.38;;
71148;SDS011;59072;42.144;25.200;2022-08-19T06:31:15;16.50;;;13.57;;
71148;SDS011;59072;42.144;25.200;2022-08-19T06:33:45;16.38;;;11.48;;
71148;SDS011;59072;42.144;25.200;2022-08-19T06:36:29;14.27;;;10.63;;
71148;SDS011;59072;42.144;25.200;2022-08-19T06:38:59;15.37;;;10.57;;
71148;SDS011;59072;42.144;25.200;2022-08-19T06:41:30;14.80;;;10.50;;
71148;SDS011;59072;42.144;25.200;2022-08-19T06:43:56;14.80;;;10.52;;
71148;SDS011;59072;42.144;25.200;2022-08-19T06:46:22;12.57;;;10.82;;
71148;SDS011;59072;42.144;25.200;2022-08-19T06:48:48;14.68;;;10.93;;
71148;SDS011;59072;42.144;25.200;2022-08-19T06:51:14;12.85;;;10.07;;
71148;SDS011;59072;42.144;25.200;2022-08-19T06:53:46;15.15;;;10.82;;
71148;SDS011;59072;42.144;25.200;2022-08-19T06:56:13;12.88;;;10.52;;
71148;SDS011;59072;42.144;25.200;2022-08-19T06:58:44;13.23;;;10.00;;
71148;SDS011;59072;42.144;25.200;2022-08-19T07:01:09;14.02;;;9.98;;
71148;SDS011;59072;42.144;25.200;2022-08-19T07:03:36;15.05;;;10.82;;
71148;SDS011;59072;42.144;25.200;2022-08-19T07:06:07;14.43;;;9.98;;
71148;SDS011;59072;42.144;25.200;2022-08-19T07:08:35;14.52;;;10.07;;
71148;SDS011;59072;42.144;25.200;2022-08-19T07:11:02;14.80;;;9.30;;
71148;SDS011;59072;42.144;25.200;2022-08-19T07:13:31;10.50;;;8.82;;
71148;SDS011;59072;42.144;25.200;2022-08-19T07:15:58;10.82;;;8.73;;
71148;SDS011;59072;42.144;25.200;2022-08-19T07:18:39;13.88;;;8.82;;
71148;SDS011;59072;42.144;25.200;2022-08-19T07:21:09;15.23;;;9.32;;
71148;SDS011;59072;42.144;25.200;2022-08-19T07:23:37;10.10;;;8.93;;
71148;SDS011;59072;42.144;25.200;2022-08-19T07:26:06;10.40;;;7.95;;
71148;SDS011;59072;42.144;25.200;2022-08-19T07:28:44;9.60;;;7.70;;
71148;SDS011;59072;42.144;25.200;2022-08-19T07:31:11;11.30;;;8.57;;
71148;SDS011;59072;42.144;25.200;2022-08-19T07:33:39;13.75;;;9.05;;
71148;SDS011;59072;42.144;25.200;2022-08-19T07:36:08;8.90;;;7.78;;
71148;SDS011;59072;42.144;25.200;2022-08-19T07:38:40;10.50;;;7.80;;
71148;SDS011;59072;42.144;25.200;2022-08-19T07:41:09;11.13;;;8.43;;
71148;SDS011;59072;42.144;25.200;2022-08-19T07:43:37;10.80;;;8.18;;
71148;SDS011;59072;42.144;25.200;2022-08-19T07:46:03;8.60;;;7.68;;
71148;SDS011;59072;42.144;25.200;2022-08-19T07:48:29;9.35;;;7.35;;
71148;SDS011;59072;42.144;25.200;2022-08-19T07:50:55;11.43;;;8.02;;
71148;SDS011;59072;42.144;25.200;2022-08-19T07:53:29;15.73;;;8.50;;
71148;SDS011;59072;42.144;25.200;2022-08-19T07:55:57;9.70;;;7.20;;
71148;SDS011;59072;42.144;25.200;2022-08-19T07:58:26;10.43;;;7.72;;
71148;SDS011;59072;42.144;25.200;2022-08-19T08:00:52;12.20;;;7.72;;
71148;SDS011;59072;42.144;25.200;2022-08-19T08:03:20;9.95;;;7.57;;
71148;SDS011;59072;42.144;25.200;2022-08-19T08:06:06;10.20;;;7.70;;
71148;SDS011;59072;42.144;25.200;2022-08-19T08:08:50;11.18;;;8.00;;
71148;SDS011;59072;42.144;25.200;2022-08-19T08:11:34;10.77;;;7.32;;
71148;SDS011;59072;42.144;25.200;2022-08-19T08:14:00;8.57;;;7.20;;
71148;SDS011;59072;42.144;25.200;2022-08-19T08:16:26;10.73;;;7.68;;
71148;SDS011;59072;42.144;25.200;2022-08-19T08:18:55;9.77;;;6.85;;
71148;SDS011;59072;42.144;25.200;2022-08-19T08:21:20;9.48;;;7.60;;
71148;SDS011;59072;42.144;25.200;2022-08-19T08:23:46;10.07;;;7.53;;
71148;SDS011;59072;42.144;25.200;2022-08-19T08:26:11;8.93;;;7.32;;
71148;SDS011;59072;42.144;25.200;2022-08-19T08:28:38;10.37;;;7.93;;
71148;SDS011;59072;42.144;25.200;2022-08-19T08:31:03;9.10;;;7.82;;
71148;SDS011;59072;42.144;25.200;2022-08-19T08:33:29;11.52;;;7.70;;
71148;SDS011;59072;42.144;25.200;2022-08-19T08:35:55;10.65;;;7.47;;
71148;SDS011;59072;42.144;25.200;2022-08-19T08:38:21;9.05;;;7.97;;
71148;SDS011;59072;42.144;25.200;2022-08-19T08:40:48;10.07;;;7.60;;
71148;SDS011;59072;42.144;25.200;2022-08-19T08:48:25;10.85;;;7.80;;
71148;SDS011;59072;42.144;25.200;2022-08-19T08:50:58;9.88;;;8.85;;
71148;SDS011;59072;42.144;25.200;2022-08-19T08:53:26;9.30;;;7.93;;
71148;SDS011;59072;42.144;25.200;2022-08-19T08:55:52;9.18;;;7.97;;
71148;SDS011;59072;42.144;25.200;2022-08-19T08:58:26;11.82;;;7.38;;
71148;SDS011;59072;42.144;25.200;2022-08-19T09:00:56;9.80;;;7.60;;
71148;SDS011;59072;42.144;25.200;2022-08-19T09:03:23;9.23;;;7.72;;
71148;SDS011;59072;42.144;25.200;2022-08-19T09:06:04;10.57;;;7.43;;
71148;SDS011;59072;42.144;25.200;2022-08-19T09:08:37;10.50;;;7.90;;
71148;SDS011;59072;42.144;25.200;2022-08-19T09:11:06;11.20;;;7.90;;
71148;SDS011;59072;42.144;25.200;2022-08-19T09:13:46;11.05;;;8.10;;
71148;SDS011;59072;42.144;25.200;2022-08-19T09:16:16;10.30;;;7.07;;
71148;SDS011;59072;42.144;25.200;2022-08-19T09:18:50;9.38;;;7.50;;
71148;SDS011;59072;42.144;25.200;2022-08-19T09:21:18;10.48;;;7.65;;
71148;SDS011;59072;42.144;25.200;2022-08-19T09:23:46;8.52;;;7.35;;
71148;SDS011;59072;42.144;25.200;2022-08-19T09:26:16;11.30;;;7.70;;
71148;SDS011;59072;42.144;25.200;2022-08-19T09:28:44;9.02;;;7.35;;
71148;SDS011;59072;42.144;25.200;2022-08-19T09:31:11;10.25;;;7.53;;
71148;SDS011;59072;42.144;25.200;2022-08-19T09:33:38;10.48;;;7.22;;
71148;SDS011;59072;42.144;25.200;2022-08-19T09:36:05;10.20;;;7.57;;
71148;SDS011;59072;42.144;25.200;2022-08-19T09:38:33;9.65;;;7.28;;
71148;SDS011;59072;42.144;25.200;2022-08-19T09:41:10;10.52;;;7.82;;
71148;SDS011;59072;42.144;25.200;2022-08-19T09:43:39;10.48;;;7.45;;
71148;SDS011;59072;42.144;25.200;2022-08-19T09:48:32;9.90;;;8.13;;
71148;SDS011;59072;42.144;25.200;2022-08-19T09:51:17;10.85;;;7.88;;
71148;SDS011;59072;42.144;25.200;2022-08-19T09:53:48;9.38;;;7.65;;
71148;SDS011;59072;42.144;25.200;2022-08-19T09:56:16;10.82;;;7.50;;
71148;SDS011;59072;42.144;25.200;2022-08-19T09:58:43;9.13;;;7.00;;
71148;SDS011;59072;42.144;25.200;2022-08-19T10:01:11;9.10;;;6.82;;
71148;SDS011;59072;42.144;25.200;2022-08-19T10:03:47;7.60;;;6.72;;
71148;SDS011;59072;42.144;25.200;2022-08-19T10:06:14;10.35;;;6.85;;
71148;SDS011;59072;42.144;25.200;2022-08-19T10:08:41;8.90;;;6.97;;
71148;SDS011;59072;42.144;25.200;2022-08-19T10:11:07;8.90;;;6.97;;
71148;SDS011;59072;42.144;25.200;2022-08-19T10:13:34;7.72;;;6.70;;
71148;SDS011;59072;42.144;25.200;2022-08-19T10:16:04;8.85;;;6.78;;
71148;SDS011;59072;42.144;25.200;2022-08-19T10:18:31;8.57;;;7.13;;
71148;SDS011;59072;42.144;25.200;2022-08-19T10:21:41;11.27;;;6.90;;
71148;SDS011;59072;42.144;25.200;2022-08-19T10:23:52;9.10;;;6.30;;
71148;SDS011;59072;42.144;25.200;2022-08-19T10:26:30;9.23;;;6.28;;
71148;SDS011;59072;42.144;25.200;2022-08-19T10:28:58;7.82;;;6.20;;
71148;SDS011;59072;42.144;25.200;2022-08-19T10:31:25;10.38;;;6.72;;
71148;SDS011;59072;42.144;25.200;2022-08-19T10:33:53;11.90;;;6.78;;
71148;SDS011;59072;42.144;25.200;2022-08-19T10:36:23;9.18;;;5.97;;
71148;SDS011;59072;42.144;25.200;2022-08-19T10:38:54;10.95;;;6.35;;
71148;SDS011;59072;42.144;25.200;2022-08-19T10:41:24;8.13;;;5.80;;
71148;SDS011;59072;42.144;25.200;2022-08-19T10:43:52;8.65;;;6.40;;
71148;SDS011;59072;42.144;25.200;2022-08-19T10:46:20;7.28;;;5.47;;
71148;SDS011;59072;42.144;25.200;2022-08-19T10:48:47;10.43;;;6.15;;
71148;SDS011;59072;42.144;25.200;2022-08-19T10:51:12;11.18;;;7.30;;
71148;SDS011;59072;42.144;25.200;2022-08-19T10:53:57;9.18;;;6.20;;
71148;SDS011;59072;42.144;25.200;2022-08-19T10:56:23;9.27;;;6.43;;
71148;SDS011;59072;42.144;25.200;2022-08-19T10:59:08;9.02;;;6.57;;
71148;SDS011;59072;42.144;25.200;2022-08-19T11:01:34;8.85;;;6.85;;
71148;SDS011;59072;42.144;25.200;2022-08-19T11:04:03;9.80;;;6.38;;
71148;SDS011;59072;42.144;25.200;2022-08-19T11:06:33;8.88;;;6.38;;
71148;SDS011;59072;42.144;25.200;2022-08-19T11:08:59;12.60;;;7.05;;
71148;SDS011;59072;42.144;25.200;2022-08-19T11:11:25;8.75;;;7.13;;
71148;SDS011;59072;42.144;25.200;2022-08-19T11:13:52;9.50;;;6.45;;
71148;SDS011;59072;42.144;25.200;2022-08-19T11:16:27;9.63;;;6.50;;
71148;SDS011;59072;42.144;25.200;2022-08-19T11:18:56;9.85;;;6.68;;
71148;SDS011;59072;42.144;25.200;2022-08-19T11:21:24;10.00;;;7.05;;
71148;SDS011;59072;42.144;25.200;2022-08-19T11:23:54;10.68;;;6.65;;
71148;SDS011;59072;42.144;25.200;2022-08-19T11:26:21;8.52;;;6.60;;
71148;SDS011;59072;42.144;25.200;2022-08-19T11:28:48;11.15;;;7.43;;
71148;SDS011;59072;42.144;25.200;2022-08-19T11:31:19;7.40;;;6.60;;
71148;SDS011;59072;42.144;25.200;2022-08-19T11:33:46;8.13;;;6.30;;
71148;SDS011;59072;42.144;25.200;2022-08-19T11:36:16;8.10;;;6.45;;
71148;SDS011;59072;42.144;25.200;2022-08-19T11:38:42;9.27;;;6.40;;
71148;SDS011;59072;42.144;25.200;2022-08-19T11:41:08;10.38;;;6.25;;
71148;SDS011;59072;42.144;25.200;2022-08-19T11:43:34;10.00;;;6.65;;
71148;SDS011;59072;42.144;25.200;2022-08-19T11:46:04;9.10;;;6.53;;
71148;SDS011;59072;42.144;25.200;2022-08-19T11:48:35;8.70;;;6.18;;
71148;SDS011;59072;42.144;25.200;2022-08-19T11:51:06;8.32;;;6.43;;
71148;SDS011;59072;42.144;25.200;2022-08-19T11:53:33;8.52;;;6.78;;
71148;SDS011;59072;42.144;25.200;2022-08-19T11:55:59;9.53;;;6.67;;
71148;SDS011;59072;42.144;25.200;2022-08-19T11:58:25;17.13;;;7.47;;
71148;SDS011;59072;42.144;25.200;2022-08-19T12:00:51;7.35;;;6.47;;
71148;SDS011;59072;42.144;25.200;2022-08-19T12:03:17;7.50;;;6.60;;
71148;SDS011;59072;42.144;25.200;2022-08-19T12:05:44;10.23;;;6.75;;
71148;SDS011;59072;42.144;25.200;2022-08-19T12:08:10;10.57;;;6.77;;
71148;SDS011;59072;42.144;25.200;2022-08-19T12:10:38;9.18;;;6.63;;
71148;SDS011;59072;42.144;25.200;2022-08-19T12:13:04;8.55;;;6.53;;
71148;SDS011;59072;42.144;25.200;2022-08-19T12:15:35;9.18;;;6.53;;
71148;SDS011;59072;42.144;25.200;2022-08-19T12:18:05;10.15;;;7.07;;
71148;SDS011;59072;42.144;25.200;2022-08-19T12:20:33;9.38;;;6.75;;
71148;SDS011;59072;42.144;25.200;2022-08-19T12:23:04;8.98;;;6.72;;
71148;SDS011;59072;42.144;25.200;2022-08-19T12:25:30;8.27;;;6.70;;
71148;SDS011;59072;42.144;25.200;2022-08-19T12:27:57;10.27;;;7.45;;
71148;SDS011;59072;42.144;25.200;2022-08-19T12:30:23;10.93;;;7.15;;
71148;SDS011;59072;42.144;25.200;2022-08-19T12:32:48;9.50;;;6.70;;
71148;SDS011;59072;42.144;25.200;2022-08-19T12:35:16;10.20;;;6.85;;
71148;SDS011;59072;42.144;25.200;2022-08-19T12:37:42;11.32;;;6.93;;
71148;SDS011;59072;42.144;25.200;2022-08-19T12:40:09;7.75;;;6.60;;
71148;SDS011;59072;42.144;25.200;2022-08-19T12:42:37;8.02;;;6.45;;
71148;SDS011;59072;42.144;25.200;2022-08-19T12:45:06;13.90;;;6.70;;
71148;SDS011;59072;42.144;25.200;2022-08-19T12:47:32;8.50;;;7.10;;
71148;SDS011;59072;42.144;25.200;2022-08-19T12:49:58;7.80;;;6.90;;
71148;SDS011;59072;42.144;25.200;2022-08-19T12:52:24;7.70;;;6.43;;
71148;SDS011;59072;42.144;25.200;2022-08-19T12:54:52;9.90;;;6.63;;
71148;SDS011;59072;42.144;25.200;2022-08-19T12:57:19;8.02;;;6.75;;
71148;SDS011;59072;42.144;25.200;2022-08-19T12:59:45;7.38;;;6.50;;
71148;SDS011;59072;42.144;25.200;2022-08-19T13:02:10;7.95;;;6.57;;
71148;SDS011;59072;42.144;25.200;2022-08-19T13:04:36;9.13;;;6.40;;
71148;SDS011;59072;42.144;25.200;2022-08-19T13:07:05;8.65;;;7.03;;
71148;SDS011;59072;42.144;25.200;2022-08-19T13:09:31;9.18;;;6.55;;
71148;SDS011;59072;42.144;25.200;2022-08-19T13:11:57;9.17;;;6.70;;
71148;SDS011;59072;42.144;25.200;2022-08-19T13:14:22;7.90;;;6.97;;
71148;SDS011;59072;42.144;25.200;2022-08-19T13:16:48;10.17;;;7.03;;
71148;SDS011;59072;42.144;25.200;2022-08-19T13:19:13;7.23;;;6.53;;
71148;SDS011;59072;42.144;25.200;2022-08-19T13:21:39;9.50;;;6.60;;
71148;SDS011;59072;42.144;25.200;2022-08-19T13:24:04;9.60;;;6.87;;
71148;SDS011;59072;42.144;25.200;2022-08-19T13:26:30;10.97;;;6.83;;
71148;SDS011;59072;42.144;25.200;2022-08-19T13:28:55;7.63;;;6.77;;
71148;SDS011;59072;42.144;25.200;2022-08-19T13:31:40;7.53;;;6.72;;
71148;SDS011;59072;42.144;25.200;2022-08-19T13:34:29;10.05;;;6.60;;
71148;SDS011;59072;42.144;25.200;2022-08-19T13:36:57;7.45;;;6.65;;
71148;SDS011;59072;42.144;25.200;2022-08-19T13:39:23;9.38;;;6.95;;
71148;SDS011;59072;42.144;25.200;2022-08-19T13:41:49;7.97;;;6.53;;
71148;SDS011;59072;42.144;25.200;2022-08-19T13:44:15;10.67;;;6.43;;
71148;SDS011;59072;42.144;25.200;2022-08-19T13:46:43;8.73;;;6.40;;
71148;SDS011;59072;42.144;25.200;2022-08-19T13:51:37;7.45;;;6.43;;
71148;SDS011;59072;42.144;25.200;2022-08-19T13:54:04;8.57;;;6.63;;
71148;SDS011;59072;42.144;25.200;2022-08-19T13:56:30;9.47;;;6.80;;
71148;SDS011;59072;42.144;25.200;2022-08-19T13:58:55;11.23;;;7.07;;
71148;SDS011;59072;42.144;25.200;2022-08-19T14:01:22;8.02;;;6.97;;
71148;SDS011;59072;42.144;25.200;2022-08-19T14:03:48;9.50;;;7.07;;
71148;SDS011;59072;42.144;25.200;2022-08-19T14:06:14;8.23;;;6.67;;
71148;SDS011;59072;42.144;25.200;2022-08-19T14:08:41;8.35;;;6.28;;
71148;SDS011;59072;42.144;25.200;2022-08-19T14:11:07;7.67;;;6.23;;
71148;SDS011;59072;42.144;25.200;2022-08-19T14:13:33;8.70;;;6.78;;
71148;SDS011;59072;42.144;25.200;2022-08-19T14:15:59;10.23;;;6.23;;
71148;SDS011;59072;42.144;25.200;2022-08-19T14:18:25;7.50;;;5.80;;
71148;SDS011;59072;42.144;25.200;2022-08-19T14:20:52;7.10;;;6.40;;
71148;SDS011;59072;42.144;25.200;2022-08-19T14:25:44;9.00;;;6.82;;
71148;SDS011;59072;42.144;25.200;2022-08-19T14:30:38;7.67;;;6.87;;
71148;SDS011;59072;42.144;25.200;2022-08-19T14:33:04;8.00;;;6.45;;
71148;SDS011;59072;42.144;25.200;2022-08-19T14:35:31;8.07;;;6.20;;
71148;SDS011;59072;42.144;25.200;2022-08-19T14:38:05;9.85;;;7.38;;
71148;SDS011;59072;42.144;25.200;2022-08-19T14:40:31;7.28;;;6.50;;
71148;SDS011;59072;42.144;25.200;2022-08-19T14:42:58;7.57;;;5.87;;
71148;SDS011;59072;42.144;25.200;2022-08-19T14:45:29;10.25;;;7.10;;
71148;SDS011;59072;42.144;25.200;2022-08-19T14:47:56;18.58;;;7.07;;
71148;SDS011;59072;42.144;25.200;2022-08-19T14:50:24;7.95;;;6.25;;
71148;SDS011;59072;42.144;25.200;2022-08-19T14:52:49;8.33;;;5.87;;
71148;SDS011;59072;42.144;25.200;2022-08-19T14:55:22;10.68;;;6.50;;